sensor_id;sensor_type;location;lat;lon;timestamp;pressure;altitude;pressure_sealevel;temperature;humidity
63090;BME280;49174;43.198;27.824;2022-11-02T00:00:56;102157.16;;;8.51;100.00
63090;BME280;49174;43.198;27.824;2022-11-02T00:03:22;102159.44;;;8.46;100.00
63090;BME280;49174;43.198;27.824;2022-11-02T00:05:48;102156.22;;;8.42;100.00
63090;BME280;49174;43.198;27.824;2022-11-02T00:08:13;102150.66;;;8.44;100.00
63090;BME280;49174;43.198;27.824;2022-11-02T00:10:39;102148.84;;;8.44;100.00
63090;BME280;49174;43.198;27.824;2022-11-02T00:13:04;102145.28;;;8.44;100.00
63090;BME280;49174;43.198;27.824;2022-11-02T00:15:32;102145.16;;;8.45;100.00
63090;BME280;49174;43.198;27.824;2022-11-02T00:18:02;102143.84;;;8.49;100.00
63090;BME280;49174;43.198;27.824;2022-11-02T00:20:28;102139.88;;;8.54;100.00
63090;BME280;49174;43.198;27.824;2022-11-02T00:22:58;102143.28;;;8.56;100.00
63090;BME280;49174;43.198;27.824;2022-11-02T00:25:27;102146.09;;;8.54;100.00
63090;BME280;49174;43.198;27.824;2022-11-02T00:27:53;102135.19;;;8.56;100.00
63090;BME280;49174;43.198;27.824;2022-11-02T00:30:19;102133.34;;;8.56;100.00
63090;BME280;49174;43.198;27.824;2022-11-02T00:32:44;102130.50;;;8.58;100.00
63090;BME280;49174;43.198;27.824;2022-11-02T00:35:10;102137.81;;;8.65;100.00
63090;BME280;49174;43.198;27.824;2022-11-02T00:37:36;102124.53;;;8.64;100.00
63090;BME280;49174;43.198;27.824;2022-11-02T00:40:02;102124.22;;;8.67;100.00
63090;BME280;49174;43.198;27.824;2022-11-02T00:42:28;102123.84;;;8.62;99.16
63090;BME280;49174;43.198;27.824;2022-11-02T00:44:53;102124.97;;;8.59;98.40
63090;BME280;49174;43.198;27.824;2022-11-02T00:47:19;102128.09;;;8.55;99.73
63090;BME280;49174;43.198;27.824;2022-11-02T00:49:44;102120.03;;;8.55;100.00
63090;BME280;49174;43.198;27.824;2022-11-02T00:52:10;102130.78;;;8.55;100.00
63090;BME280;49174;43.198;27.824;2022-11-02T00:54:35;102119.34;;;8.53;100.00
63090;BME280;49174;43.198;27.824;2022-11-02T00:57:01;102117.94;;;8.48;100.00
63090;BME280;49174;43.198;27.824;2022-11-02T00:59:26;102119.50;;;8.51;100.00
63090;BME280;49174;43.198;27.824;2022-11-02T01:01:52;102114.97;;;8.52;100.00
63090;BME280;49174;43.198;27.824;2022-11-02T01:04:18;102113.28;;;8.50;100.00
63090;BME280;49174;43.198;27.824;2022-11-02T01:06:43;102113.28;;;8.50;100.00
63090;BME280;49174;43.198;27.824;2022-11-02T01:09:10;102105.59;;;8.56;100.00
63090;BME280;49174;43.198;27.824;2022-11-02T01:11:36;102111.75;;;8.66;100.00
63090;BME280;49174;43.198;27.824;2022-11-02T01:14:01;102106.63;;;8.72;100.00
63090;BME280;49174;43.198;27.824;2022-11-02T01:16:27;102103.03;;;8.82;100.00
63090;BME280;49174;43.198;27.824;2022-11-02T01:18:54;102096.88;;;8.89;100.00
63090;BME280;49174;43.198;27.824;2022-11-02T01:21:20;102088.72;;;8.99;100.00
63090;BME280;49174;43.198;27.824;2022-11-02T01:23:46;102081.56;;;9.08;100.00
63090;BME280;49174;43.198;27.824;2022-11-02T01:26:12;102083.94;;;9.11;100.00
63090;BME280;49174;43.198;27.824;2022-11-02T01:28:38;102087.19;;;9.14;100.00
63090;BME280;49174;43.198;27.824;2022-11-02T01:31:05;102084.72;;;9.21;100.00
63090;BME280;49174;43.198;27.824;2022-11-02T01:33:31;102093.50;;;9.23;100.00
63090;BME280;49174;43.198;27.824;2022-11-02T01:35:57;102082.41;;;9.26;100.00
63090;BME280;49174;43.198;27.824;2022-11-02T01:38:24;102078.25;;;9.32;100.00
63090;BME280;49174;43.198;27.824;2022-11-02T01:40:50;102078.78;;;9.35;100.00
63090;BME280;49174;43.198;27.824;2022-11-02T01:43:30;102070.25;;;9.40;100.00
63090;BME280;49174;43.198;27.824;2022-11-02T01:51:21;102062.69;;;9.44;100.00
63090;BME280;49174;43.198;27.824;2022-11-02T01:53:50;102061.69;;;9.45;100.00
63090;BME280;49174;43.198;27.824;2022-11-02T01:56:18;102058.38;;;9.51;100.00
63090;BME280;49174;43.198;27.824;2022-11-02T01:58:50;102053.50;;;9.54;100.00
63090;BME280;49174;43.198;27.824;2022-11-02T02:01:17;102055.72;;;9.59;100.00
63090;BME280;49174;43.198;27.824;2022-11-02T02:03:43;102048.63;;;9.58;100.00
63090;BME280;49174;43.198;27.824;2022-11-02T02:06:12;102047.97;;;9.56;100.00
63090;BME280;49174;43.198;27.824;2022-11-02T02:08:44;102046.13;;;9.56;100.00
63090;BME280;49174;43.198;27.824;2022-11-02T02:11:31;102053.69;;;9.61;100.00
63090;BME280;49174;43.198;27.824;2022-11-02T02:19:07;102045.34;;;9.64;100.00
63090;BME280;49174;43.198;27.824;2022-11-02T02:22:03;102050.03;;;9.62;100.00
63090;BME280;49174;43.198;27.824;2022-11-02T02:25:02;102057.09;;;9.63;100.00
63090;BME280;49174;43.198;27.824;2022-11-02T02:30:18;102049.97;;;9.54;100.00
63090;BME280;49174;43.198;27.824;2022-11-02T02:32:55;102051.81;;;9.53;100.00
63090;BME280;49174;43.198;27.824;2022-11-02T02:35:44;102050.81;;;9.54;100.00
63090;BME280;49174;43.198;27.824;2022-11-02T02:38:11;102049.59;;;9.49;100.00
63090;BME280;49174;43.198;27.824;2022-11-02T02:40:46;102046.84;;;9.40;100.00
63090;BME280;49174;43.198;27.824;2022-11-02T02:45:59;102048.22;;;9.45;100.00
63090;BME280;49174;43.198;27.824;2022-11-02T02:48:26;102050.06;;;9.44;100.00
63090;BME280;49174;43.198;27.824;2022-11-02T02:51:00;102053.63;;;9.45;100.00
63090;BME280;49174;43.198;27.824;2022-11-02T02:53:38;102050.22;;;9.43;100.00
63090;BME280;49174;43.198;27.824;2022-11-02T02:56:06;102049.84;;;9.37;100.00
63090;BME280;49174;43.198;27.824;2022-11-02T02:58:46;102049.84;;;9.37;100.00
63090;BME280;49174;43.198;27.824;2022-11-02T03:01:13;102042.09;;;9.34;100.00
63090;BME280;49174;43.198;27.824;2022-11-02T03:03:41;102047.63;;;9.33;100.00
63090;BME280;49174;43.198;27.824;2022-11-02T03:06:26;102048.63;;;9.32;100.00
63090;BME280;49174;43.198;27.824;2022-11-02T03:09:39;102046.47;;;9.35;100.00
63090;BME280;49174;43.198;27.824;2022-11-02T03:14:36;102040.94;;;9.37;100.00
63090;BME280;49174;43.198;27.824;2022-11-02T03:17:14;102038.38;;;9.35;100.00
63090;BME280;49174;43.198;27.824;2022-11-02T03:19:50;102037.06;;;9.39;100.00
63090;BME280;49174;43.198;27.824;2022-11-02T03:22:49;102032.16;;;9.35;100.00
63090;BME280;49174;43.198;27.824;2022-11-02T03:25:29;102027.59;;;9.35;100.00
63090;BME280;49174;43.198;27.824;2022-11-02T03:28:17;102016.50;;;9.38;100.00
63090;BME280;49174;43.198;27.824;2022-11-02T03:30:55;102015.34;;;9.41;100.00
63090;BME280;49174;43.198;27.824;2022-11-02T03:33:31;102015.22;;;9.43;100.00
63090;BME280;49174;43.198;27.824;2022-11-02T03:36:13;102015.03;;;9.44;100.00
63090;BME280;49174;43.198;27.824;2022-11-02T03:38:55;102009.88;;;9.51;100.00
63090;BME280;49174;43.198;27.824;2022-11-02T03:41:23;102018.34;;;9.56;100.00
63090;BME280;49174;43.198;27.824;2022-11-02T03:43:54;102010.91;;;9.58;100.00
63090;BME280;49174;43.198;27.824;2022-11-02T03:46:22;102016.94;;;9.52;100.00
63090;BME280;49174;43.198;27.824;2022-11-02T03:48:49;102014.25;;;9.52;100.00
63090;BME280;49174;43.198;27.824;2022-11-02T03:51:18;102010.59;;;9.61;100.00
63090;BME280;49174;43.198;27.824;2022-11-02T03:56:34;102007.22;;;9.59;100.00
63090;BME280;49174;43.198;27.824;2022-11-02T03:59:01;102006.06;;;9.61;100.00
63090;BME280;49174;43.198;27.824;2022-11-02T04:01:28;102008.97;;;9.68;100.00
63090;BME280;49174;43.198;27.824;2022-11-02T04:03:54;102005.75;;;9.65;100.00
63090;BME280;49174;43.198;27.824;2022-11-02T04:06:19;102010.06;;;9.57;100.00
63090;BME280;49174;43.198;27.824;2022-11-02T04:08:46;102009.03;;;9.50;100.00
63090;BME280;49174;43.198;27.824;2022-11-02T04:11:13;102010.59;;;9.61;100.00
63090;BME280;49174;43.198;27.824;2022-11-02T04:13:58;102003.56;;;9.68;100.00
63090;BME280;49174;43.198;27.824;2022-11-02T04:16:42;102000.88;;;9.68;100.00
63090;BME280;49174;43.198;27.824;2022-11-02T04:19:09;102004.09;;;9.72;100.00
63090;BME280;49174;43.198;27.824;2022-11-02T04:21:56;102005.78;;;9.73;100.00
63090;BME280;49174;43.198;27.824;2022-11-02T04:24:40;102005.78;;;9.73;100.00
63090;BME280;49174;43.198;27.824;2022-11-02T04:27:24;102007.66;;;9.72;100.00
63090;BME280;49174;43.198;27.824;2022-11-02T04:29:50;101997.38;;;9.76;100.00
63090;BME280;49174;43.198;27.824;2022-11-02T04:32:16;101989.63;;;9.73;100.00
63090;BME280;49174;43.198;27.824;2022-11-02T04:35:05;101990.13;;;9.76;100.00
63090;BME280;49174;43.198;27.824;2022-11-02T04:37:30;101988.78;;;9.80;100.00
63090;BME280;49174;43.198;27.824;2022-11-02T04:40:20;101986.41;;;9.77;100.00
63090;BME280;49174;43.198;27.824;2022-11-02T04:42:45;101987.13;;;9.79;100.00
63090;BME280;49174;43.198;27.824;2022-11-02T04:45:11;101989.81;;;9.79;100.00
63090;BME280;49174;43.198;27.824;2022-11-02T04:47:37;101989.44;;;9.74;100.00
63090;BME280;49174;43.198;27.824;2022-11-02T04:50:02;101989.13;;;9.77;100.00
63090;BME280;49174;43.198;27.824;2022-11-02T04:52:28;101991.34;;;9.82;100.00
63090;BME280;49174;43.198;27.824;2022-11-02T04:54:54;101988.50;;;9.83;100.00
63090;BME280;49174;43.198;27.824;2022-11-02T04:57:20;101988.84;;;9.89;100.00
63090;BME280;49174;43.198;27.824;2022-11-02T04:59:47;101993.75;;;9.93;100.00
63090;BME280;49174;43.198;27.824;2022-11-02T05:02:13;101990.38;;;9.91;100.00
63090;BME280;49174;43.198;27.824;2022-11-02T05:04:38;101987.53;;;9.93;100.00
63090;BME280;49174;43.198;27.824;2022-11-02T05:07:04;101990.56;;;9.98;100.00
63090;BME280;49174;43.198;27.824;2022-11-02T05:09:32;101989.56;;;9.99;100.00
63090;BME280;49174;43.198;27.824;2022-11-02T05:11:58;101985.66;;;9.93;100.00
63090;BME280;49174;43.198;27.824;2022-11-02T05:14:23;101995.25;;;9.88;100.00
63090;BME280;49174;43.198;27.824;2022-11-02T05:16:49;101999.94;;;9.85;100.00
63090;BME280;49174;43.198;27.824;2022-11-02T05:19:14;101990.53;;;9.90;100.00
63090;BME280;49174;43.198;27.824;2022-11-02T05:21:43;101995.75;;;9.91;100.00
63090;BME280;49174;43.198;27.824;2022-11-02T05:24:14;101999.66;;;9.97;100.00
63090;BME280;49174;43.198;27.824;2022-11-02T05:26:43;102001.03;;;10.01;100.00
63090;BME280;49174;43.198;27.824;2022-11-02T05:29:09;102003.72;;;10.01;100.00
63090;BME280;49174;43.198;27.824;2022-11-02T05:31:34;102004.91;;;9.98;100.00
63090;BME280;49174;43.198;27.824;2022-11-02T05:34:00;102009.63;;;10.04;100.00
63090;BME280;49174;43.198;27.824;2022-11-02T05:36:25;102003.75;;;10.09;100.00
63090;BME280;49174;43.198;27.824;2022-11-02T05:38:54;102010.69;;;10.12;100.00
63090;BME280;49174;43.198;27.824;2022-11-02T05:41:22;102013.91;;;10.15;100.00
63090;BME280;49174;43.198;27.824;2022-11-02T05:43:47;102010.19;;;10.16;100.00
63090;BME280;49174;43.198;27.824;2022-11-02T05:46:14;102019.09;;;10.17;100.00
63090;BME280;49174;43.198;27.824;2022-11-02T05:48:39;102012.53;;;10.19;100.00
63090;BME280;49174;43.198;27.824;2022-11-02T05:51:06;102015.59;;;10.24;100.00
63090;BME280;49174;43.198;27.824;2022-11-02T05:53:32;102016.94;;;10.20;100.00
63090;BME280;49174;43.198;27.824;2022-11-02T06:08:50;102014.56;;;10.68;100.00
63090;BME280;49174;43.198;27.824;2022-11-02T06:11:16;102011.69;;;10.69;100.00
63090;BME280;49174;43.198;27.824;2022-11-02T06:13:41;102017.25;;;10.60;100.00
63090;BME280;49174;43.198;27.824;2022-11-02T06:16:09;102015.03;;;10.55;100.00
63090;BME280;49174;43.198;27.824;2022-11-02T06:18:36;102018.75;;;10.54;100.00
63090;BME280;49174;43.198;27.824;2022-11-02T06:21:02;102015.88;;;10.56;100.00
63090;BME280;49174;43.198;27.824;2022-11-02T06:23:28;102019.78;;;10.61;100.00
63090;BME280;49174;43.198;27.824;2022-11-02T06:25:55;102028.22;;;10.66;100.00
63090;BME280;49174;43.198;27.824;2022-11-02T06:28:21;102029.75;;;10.69;100.00
63090;BME280;49174;43.198;27.824;2022-11-02T06:30:47;102031.78;;;10.75;100.00
63090;BME280;49174;43.198;27.824;2022-11-02T06:33:14;102034.66;;;10.82;100.00
63090;BME280;49174;43.198;27.824;2022-11-02T06:35:46;102030.47;;;10.87;100.00
63090;BME280;49174;43.198;27.824;2022-11-02T09:07:42;101880.72;;;14.96;98.06
63090;BME280;49174;43.198;27.824;2022-11-02T09:15:34;101874.88;;;15.76;91.62
63090;BME280;49174;43.198;27.824;2022-11-02T09:18:00;101876.66;;;15.97;89.81
63090;BME280;49174;43.198;27.824;2022-11-02T09:20:26;101865.81;;;16.17;86.58
63090;BME280;49174;43.198;27.824;2022-11-02T09:22:51;101868.75;;;16.35;85.48
63090;BME280;49174;43.198;27.824;2022-11-02T09:25:17;101853.28;;;16.56;84.96
63090;BME280;49174;43.198;27.824;2022-11-02T09:27:43;101855.56;;;16.72;83.46
63090;BME280;49174;43.198;27.824;2022-11-02T09:30:10;101860.41;;;16.90;80.79
63090;BME280;49174;43.198;27.824;2022-11-02T09:32:36;101851.34;;;17.09;80.98
63090;BME280;49174;43.198;27.824;2022-11-02T09:35:03;101852.75;;;17.32;78.61
63090;BME280;49174;43.198;27.824;2022-11-02T09:37:30;101838.84;;;17.53;77.27
63090;BME280;49174;43.198;27.824;2022-11-02T09:39:56;101829.94;;;17.71;77.57
63090;BME280;49174;43.198;27.824;2022-11-02T09:45:11;101831.00;;;18.08;76.48
63090;BME280;49174;43.198;27.824;2022-11-02T09:47:43;101825.41;;;18.28;75.56
63090;BME280;49174;43.198;27.824;2022-11-02T09:56:31;101807.28;;;18.84;79.96
63090;BME280;49174;43.198;27.824;2022-11-02T09:59:10;101795.13;;;18.98;79.77
63090;BME280;49174;43.198;27.824;2022-11-02T10:12:55;101779.06;;;19.88;65.67
63090;BME280;49174;43.198;27.824;2022-11-02T10:15:26;101771.84;;;20.05;63.18
63090;BME280;49174;43.198;27.824;2022-11-02T10:17:55;101773.53;;;20.18;64.24
63090;BME280;49174;43.198;27.824;2022-11-02T10:20:37;101760.69;;;20.30;62.33
63090;BME280;49174;43.198;27.824;2022-11-02T10:23:14;101757.00;;;20.48;66.02
63090;BME280;49174;43.198;27.824;2022-11-02T10:25:42;101756.91;;;20.66;67.19
63090;BME280;49174;43.198;27.824;2022-11-02T10:28:16;101746.03;;;20.83;64.71
63090;BME280;49174;43.198;27.824;2022-11-02T10:30:43;101746.38;;;20.98;64.57
63090;BME280;49174;43.198;27.824;2022-11-02T10:33:22;101745.63;;;21.15;62.69
63090;BME280;49174;43.198;27.824;2022-11-02T10:38:37;101730.13;;;21.49;60.90
63090;BME280;49174;43.198;27.824;2022-11-02T10:47:00;101716.84;;;21.92;58.03
63090;BME280;49174;43.198;27.824;2022-11-02T10:52:37;101714.97;;;22.26;61.75
63090;BME280;49174;43.198;27.824;2022-11-02T10:55:08;101716.53;;;22.39;57.40
63090;BME280;49174;43.198;27.824;2022-11-02T10:57:38;101714.00;;;22.54;57.56
63090;BME280;49174;43.198;27.824;2022-11-02T11:03:21;101702.84;;;22.83;54.27
63090;BME280;49174;43.198;27.824;2022-11-02T11:08:28;101686.34;;;23.05;54.27
63090;BME280;49174;43.198;27.824;2022-11-02T11:10:54;101692.28;;;23.18;56.99
63090;BME280;49174;43.198;27.824;2022-11-02T11:13:22;101693.25;;;23.29;55.26
63090;BME280;49174;43.198;27.824;2022-11-02T11:15:50;101684.53;;;23.42;54.72
63090;BME280;49174;43.198;27.824;2022-11-02T11:18:20;101685.47;;;23.53;55.17
63090;BME280;49174;43.198;27.824;2022-11-02T11:20:46;101686.16;;;23.66;56.23
63090;BME280;49174;43.198;27.824;2022-11-02T11:23:17;101675.78;;;23.73;49.24
63090;BME280;49174;43.198;27.824;2022-11-02T11:25:59;101675.03;;;23.82;53.37
63090;BME280;49174;43.198;27.824;2022-11-02T11:28:52;101667.34;;;23.90;53.85
63090;BME280;49174;43.198;27.824;2022-11-02T11:31:18;101666.56;;;23.94;50.99
63090;BME280;49174;43.198;27.824;2022-11-02T11:33:55;101663.88;;;23.99;52.21
63090;BME280;49174;43.198;27.824;2022-11-02T11:36:24;101660.88;;;24.06;50.34
63090;BME280;49174;43.198;27.824;2022-11-02T11:38:52;101655.66;;;24.09;50.38
63090;BME280;49174;43.198;27.824;2022-11-02T11:41:18;101652.94;;;24.15;52.87
63090;BME280;49174;43.198;27.824;2022-11-02T11:43:46;101646.91;;;24.23;49.24
63090;BME280;49174;43.198;27.824;2022-11-02T11:46:14;101642.00;;;24.30;50.30
63090;BME280;49174;43.198;27.824;2022-11-02T11:56:49;101640.47;;;24.49;45.74
63090;BME280;49174;43.198;27.824;2022-11-02T11:59:29;101638.84;;;24.53;46.43
63090;BME280;49174;43.198;27.824;2022-11-02T12:01:58;101632.22;;;24.60;47.20
63090;BME280;49174;43.198;27.824;2022-11-02T12:23:04;101601.53;;;25.24;45.68
63090;BME280;49174;43.198;27.824;2022-11-02T12:28:27;101592.41;;;25.29;43.89
63090;BME280;49174;43.198;27.824;2022-11-02T12:36:02;101584.13;;;25.39;44.87
63090;BME280;49174;43.198;27.824;2022-11-02T12:38:51;101574.19;;;25.43;41.07
63090;BME280;49174;43.198;27.824;2022-11-02T12:41:44;101578.63;;;25.49;41.57
63090;BME280;49174;43.198;27.824;2022-11-02T12:49:49;101563.66;;;25.66;35.35
63090;BME280;49174;43.198;27.824;2022-11-02T12:55:15;101566.41;;;25.81;35.50
63090;BME280;49174;43.198;27.824;2022-11-02T12:57:41;101575.00;;;25.84;36.69
63090;BME280;49174;43.198;27.824;2022-11-02T13:00:19;101569.47;;;25.84;37.23
63090;BME280;49174;43.198;27.824;2022-11-02T13:05:15;101568.91;;;25.93;35.13
63090;BME280;49174;43.198;27.824;2022-11-02T13:07:46;101567.25;;;25.92;36.08
63090;BME280;49174;43.198;27.824;2022-11-02T13:10:18;101566.69;;;26.00;33.29
63090;BME280;49174;43.198;27.824;2022-11-02T13:12:50;101573.31;;;25.99;32.14
63090;BME280;49174;43.198;27.824;2022-11-02T13:15:19;101563.09;;;25.99;31.45
63090;BME280;49174;43.198;27.824;2022-11-02T13:17:53;101573.28;;;26.09;32.21
63090;BME280;49174;43.198;27.824;2022-11-02T13:20:25;101568.31;;;26.06;33.29
63090;BME280;49174;43.198;27.824;2022-11-02T13:23:16;101572.22;;;25.95;34.33
63090;BME280;49174;43.198;27.824;2022-11-02T13:25:49;101576.09;;;25.94;33.51
63090;BME280;49174;43.198;27.824;2022-11-02T13:28:31;101575.00;;;25.90;31.90
63090;BME280;49174;43.198;27.824;2022-11-02T13:31:01;101570.81;;;25.82;32.28
63090;BME280;49174;43.198;27.824;2022-11-02T13:33:35;101573.06;;;25.75;31.44
63090;BME280;49174;43.198;27.824;2022-11-02T13:36:05;101570.56;;;25.73;32.70
63090;BME280;49174;43.198;27.824;2022-11-02T13:38:38;101570.31;;;25.70;32.50
63090;BME280;49174;43.198;27.824;2022-11-02T13:51:55;101580.25;;;25.35;34.01
63090;BME280;49174;43.198;27.824;2022-11-02T13:56:55;101576.06;;;25.12;34.24
63090;BME280;49174;43.198;27.824;2022-11-02T13:59:33;101579.91;;;25.01;34.12
63090;BME280;49174;43.198;27.824;2022-11-02T14:02:05;101576.31;;;24.95;35.02
63090;BME280;49174;43.198;27.824;2022-11-02T14:04:37;101582.13;;;24.88;36.65
63090;BME280;49174;43.198;27.824;2022-11-02T14:07:06;101582.91;;;24.79;36.08
63090;BME280;49174;43.198;27.824;2022-11-02T14:09:38;101576.28;;;24.69;35.00
63090;BME280;49174;43.198;27.824;2022-11-02T14:12:12;101584.28;;;24.66;33.94
63090;BME280;49174;43.198;27.824;2022-11-02T14:20:37;101602.22;;;24.16;48.49
63090;BME280;49174;43.198;27.824;2022-11-02T14:23:33;101596.97;;;23.72;53.06
63090;BME280;49174;43.198;27.824;2022-11-02T14:25:59;101609.00;;;23.33;54.92
63090;BME280;49174;43.198;27.824;2022-11-02T14:28:40;101603.16;;;22.97;56.59
63090;BME280;49174;43.198;27.824;2022-11-02T14:34:42;101607.88;;;22.36;60.50
63090;BME280;49174;43.198;27.824;2022-11-02T14:48:13;101617.91;;;20.95;66.93
63090;BME280;49174;43.198;27.824;2022-11-02T14:51:01;101619.34;;;20.58;68.85
63090;BME280;49174;43.198;27.824;2022-11-02T14:53:31;101614.47;;;20.36;69.60
63090;BME280;49174;43.198;27.824;2022-11-02T14:55:58;101618.19;;;20.06;72.08
63090;BME280;49174;43.198;27.824;2022-11-02T14:58:48;101625.69;;;19.76;73.55
63090;BME280;49174;43.198;27.824;2022-11-02T15:01:15;101630.75;;;19.60;74.97
63090;BME280;49174;43.198;27.824;2022-11-02T15:03:43;101622.38;;;19.43;75.62
63090;BME280;49174;43.198;27.824;2022-11-02T15:06:24;101627.84;;;19.32;76.80
63090;BME280;49174;43.198;27.824;2022-11-02T15:11:47;101633.59;;;19.12;77.45
63090;BME280;49174;43.198;27.824;2022-11-02T15:22:46;101638.91;;;18.77;78.31
63090;BME280;49174;43.198;27.824;2022-11-02T15:25:19;101641.75;;;18.63;78.80
63090;BME280;49174;43.198;27.824;2022-11-02T15:27:47;101642.53;;;18.52;78.51
63090;BME280;49174;43.198;27.824;2022-11-02T15:30:17;101648.53;;;18.42;79.00
63090;BME280;49174;43.198;27.824;2022-11-02T15:32:55;101649.66;;;18.35;79.95
63090;BME280;49174;43.198;27.824;2022-11-02T15:35:25;101657.69;;;18.29;80.35
63090;BME280;49174;43.198;27.824;2022-11-02T15:37:57;101657.94;;;18.28;79.64
63090;BME280;49174;43.198;27.824;2022-11-02T15:40:34;101659.97;;;18.14;79.73
63090;BME280;49174;43.198;27.824;2022-11-02T15:56:32;101690.22;;;17.56;79.92
63090;BME280;49174;43.198;27.824;2022-11-02T16:01:36;101701.31;;;17.23;81.22
63090;BME280;49174;43.198;27.824;2022-11-02T16:04:05;101702.66;;;17.07;81.12
63090;BME280;49174;43.198;27.824;2022-11-02T16:06:37;101706.69;;;16.97;81.25
63090;BME280;49174;43.198;27.824;2022-11-02T16:16:20;101714.75;;;16.46;81.55
63090;BME280;49174;43.198;27.824;2022-11-02T16:18:51;101718.34;;;16.33;82.45
63090;BME280;49174;43.198;27.824;2022-11-02T16:21:18;101718.75;;;16.23;83.58
63090;BME280;49174;43.198;27.824;2022-11-02T16:23:52;101718.13;;;16.21;83.82
63090;BME280;49174;43.198;27.824;2022-11-02T16:26:22;101723.16;;;16.18;83.11
63090;BME280;49174;43.198;27.824;2022-11-02T16:28:57;101726.75;;;16.05;83.33
63090;BME280;49174;43.198;27.824;2022-11-02T18:25:14;101785.56;;;13.69;83.39
63090;BME280;49174;43.198;27.824;2022-11-02T20:09:46;101867.19;;;12.01;83.93
63090;BME280;49174;43.198;27.824;2022-11-02T20:12:11;101866.34;;;12.01;84.48
63090;BME280;49174;43.198;27.824;2022-11-02T20:14:37;101872.75;;;12.00;83.90
63090;BME280;49174;43.198;27.824;2022-11-02T20:17:03;101866.94;;;11.88;83.47
63090;BME280;49174;43.198;27.824;2022-11-02T20:19:28;101867.28;;;11.77;84.22
63090;BME280;49174;43.198;27.824;2022-11-02T20:21:54;101868.66;;;11.73;85.16
63090;BME280;49174;43.198;27.824;2022-11-02T20:24:20;101871.56;;;11.71;84.58
63090;BME280;49174;43.198;27.824;2022-11-02T20:26:45;101868.72;;;11.65;84.78
63090;BME280;49174;43.198;27.824;2022-11-02T20:29:11;101865.38;;;11.54;83.61
63090;BME280;49174;43.198;27.824;2022-11-02T20:31:37;101873.53;;;11.46;85.94
63090;BME280;49174;43.198;27.824;2022-11-02T20:34:05;101872.53;;;11.39;85.56
63090;BME280;49174;43.198;27.824;2022-11-02T20:36:31;101864.59;;;11.37;86.96
63090;BME280;49174;43.198;27.824;2022-11-02T20:38:57;101868.81;;;11.40;86.95
63090;BME280;49174;43.198;27.824;2022-11-02T20:41:24;101862.75;;;11.38;86.80
63090;BME280;49174;43.198;27.824;2022-11-02T20:43:52;101863.41;;;11.40;87.25
63090;BME280;49174;43.198;27.824;2022-11-02T20:46:24;101866.28;;;11.38;85.56
63090;BME280;49174;43.198;27.824;2022-11-02T20:48:50;101877.75;;;11.40;85.73
63090;BME280;49174;43.198;27.824;2022-11-02T20:51:17;101872.03;;;11.35;85.14
63090;BME280;49174;43.198;27.824;2022-11-02T20:53:44;101870.38;;;11.26;85.94
63090;BME280;49174;43.198;27.824;2022-11-02T20:56:10;101882.75;;;11.12;86.20
63090;BME280;49174;43.198;27.824;2022-11-02T20:58:36;101877.50;;;11.11;86.80
63090;BME280;49174;43.198;27.824;2022-11-02T21:01:01;101884.09;;;11.08;86.24
63090;BME280;49174;43.198;27.824;2022-11-02T21:03:27;101877.38;;;11.04;87.41
63090;BME280;49174;43.198;27.824;2022-11-02T21:05:53;101879.22;;;11.04;88.09
63090;BME280;49174;43.198;27.824;2022-11-02T21:08:18;101879.72;;;10.99;88.62
63090;BME280;49174;43.198;27.824;2022-11-02T21:10:56;101888.19;;;10.96;87.57
63090;BME280;49174;43.198;27.824;2022-11-02T21:13:22;101897.47;;;10.85;87.00
63090;BME280;49174;43.198;27.824;2022-11-02T21:16:06;101903.72;;;10.78;87.49
63090;BME280;49174;43.198;27.824;2022-11-02T21:18:32;101888.69;;;10.67;88.25
63090;BME280;49174;43.198;27.824;2022-11-02T21:23:30;101889.22;;;10.70;88.45
63090;BME280;49174;43.198;27.824;2022-11-02T21:25:58;101896.78;;;10.67;88.62
63090;BME280;49174;43.198;27.824;2022-11-02T21:28:27;101894.44;;;10.72;88.57
63090;BME280;49174;43.198;27.824;2022-11-02T21:31:02;101900.88;;;10.71;88.86
63090;BME280;49174;43.198;27.824;2022-11-02T21:33:28;101906.75;;;10.58;87.12
63090;BME280;49174;43.198;27.824;2022-11-02T21:35:54;101907.78;;;10.49;87.76
63090;BME280;49174;43.198;27.824;2022-11-02T21:38:20;101903.06;;;10.43;87.93
63090;BME280;49174;43.198;27.824;2022-11-02T21:40:46;101918.06;;;10.37;87.60
63090;BME280;49174;43.198;27.824;2022-11-02T21:43:11;101925.13;;;10.30;87.17
63090;BME280;49174;43.198;27.824;2022-11-02T21:45:37;101931.16;;;10.24;87.55
63090;BME280;49174;43.198;27.824;2022-11-02T21:48:02;101934.66;;;10.16;88.69
63090;BME280;49174;43.198;27.824;2022-11-02T21:50:28;101941.06;;;10.07;89.58
63090;BME280;49174;43.198;27.824;2022-11-02T21:52:53;101936.13;;;10.02;90.23
63090;BME280;49174;43.198;27.824;2022-11-02T21:55:19;101942.59;;;10.10;91.23
63090;BME280;49174;43.198;27.824;2022-11-02T21:57:44;101945.97;;;10.12;90.69
63090;BME280;49174;43.198;27.824;2022-11-02T22:00:10;101945.78;;;10.13;89.41
63090;BME280;49174;43.198;27.824;2022-11-02T22:02:36;101947.63;;;10.13;90.74
63090;BME280;49174;43.198;27.824;2022-11-02T22:05:01;101956.56;;;10.13;90.06
63090;BME280;49174;43.198;27.824;2022-11-02T22:07:27;101957.22;;;10.07;88.80
63090;BME280;49174;43.198;27.824;2022-11-02T22:10:12;101958.03;;;9.99;89.72
63090;BME280;49174;43.198;27.824;2022-11-02T22:12:38;101960.09;;;9.97;89.46
63090;BME280;49174;43.198;27.824;2022-11-02T22:15:22;101954.31;;;9.92;89.55